createdAt,value
2022-11-06T00:04:36.152Z,5.50
2022-11-06T00:09:44.025Z,6.82
2022-11-06T00:14:50.010Z,6.60
2022-11-06T00:19:56.197Z,5.18
2022-11-06T00:25:07.572Z,5.40
2022-11-06T00:30:14.486Z,10.82
2022-11-06T00:35:21.060Z,7.65
2022-11-06T00:40:28.895Z,7.32
2022-11-06T00:45:35.218Z,6.13
2022-11-06T00:50:41.471Z,5.97
2022-11-06T00:55:49.310Z,6.70
2022-11-06T01:00:55.786Z,8.13
2022-11-06T01:06:09.331Z,4.53
2022-11-06T01:11:20.105Z,7.32
2022-11-06T01:16:27.787Z,3.20
2022-11-06T01:21:37.379Z,6.25
2022-11-06T01:27:12.039Z,3.03
2022-11-06T01:32:12.818Z,2.95
2022-11-06T01:37:19.025Z,5.93
2022-11-06T01:42:26.639Z,4.15
2022-11-06T01:47:32.821Z,5.32
2022-11-06T01:52:40.187Z,4.75
2022-11-06T01:57:49.021Z,4.80
2022-11-06T02:02:55.458Z,8.30
2022-11-06T02:08:03.068Z,5.05
2022-11-06T02:13:26.315Z,5.07
2022-11-06T02:19:11.807Z,3.47
2022-11-06T02:25:10.380Z,4.85
2022-11-06T02:30:20.056Z,5.95
2022-11-06T02:35:31.694Z,3.28
2022-11-06T02:40:44.558Z,5.82
2022-11-06T02:45:58.628Z,1.90
2022-11-06T02:51:06.952Z,2.50
2022-11-06T02:56:16.796Z,4.68
2022-11-06T03:01:31.189Z,9.48
2022-11-06T03:06:43.546Z,7.32
2022-11-06T03:11:59.220Z,13.93
2022-11-06T03:17:13.994Z,9.57
2022-11-06T03:22:29.889Z,4.38
2022-11-06T03:27:42.248Z,7.13
2022-11-06T03:32:55.527Z,5.13
2022-11-06T03:38:07.112Z,4.22
2022-11-06T03:43:18.982Z,11.57
2022-11-06T03:48:33.801Z,5.25
2022-11-06T03:53:48.183Z,6.55
2022-11-06T03:58:55.495Z,4.47
2022-11-06T04:04:08.628Z,4.30
2022-11-06T04:09:35.334Z,6.32
2022-11-06T04:14:47.150Z,5.07
2022-11-06T04:19:58.778Z,11.25
2022-11-06T04:25:34.670Z,8.43
2022-11-06T04:30:55.455Z,6.00
2022-11-06T04:36:12.728Z,4.47
2022-11-06T04:41:34.919Z,7.85
2022-11-06T04:46:48.525Z,4.70
2022-11-06T04:51:57.253Z,5.95
2022-11-06T04:57:05.312Z,5.57
2022-11-06T05:02:13.188Z,7.50
2022-11-06T05:07:21.497Z,8.38
2022-11-06T05:12:28.112Z,8.10
2022-11-06T05:17:36.616Z,12.32
2022-11-06T05:23:05.332Z,8.48
2022-11-06T05:28:12.282Z,10.63
2022-11-06T05:33:18.588Z,12.23
2022-11-06T05:38:26.245Z,15.93
2022-11-06T05:43:32.421Z,12.38
2022-11-06T05:48:38.600Z,10.23
2022-11-06T05:53:46.298Z,8.35
2022-11-06T05:58:52.485Z,11.15
2022-11-06T06:03:59.046Z,7.72
2022-11-06T06:09:07.120Z,7.10
2022-11-06T06:14:13.457Z,7.90
2022-11-06T06:19:19.854Z,7.10
2022-11-06T06:24:27.766Z,8.27
2022-11-06T06:29:34.650Z,5.47
2022-11-06T06:34:40.914Z,7.63
2022-11-06T06:39:49.151Z,6.85
2022-11-06T06:44:55.597Z,7.80
2022-11-06T06:50:02.418Z,5.38
2022-11-06T06:55:11.708Z,7.45
2022-11-06T07:00:18.718Z,6.80
2022-11-06T07:05:25.129Z,7.85
2022-11-06T07:10:34.815Z,6.32
2022-11-06T07:20:46.466Z,8.50
2022-11-06T07:25:56.534Z,6.63
2022-11-06T07:31:04.342Z,7.30
2022-11-06T07:36:13.751Z,6.53
2022-11-06T07:41:21.315Z,7.40
2022-11-06T07:46:27.514Z,8.25
2022-11-06T07:51:33.702Z,9.18
2022-11-06T07:56:41.432Z,8.80
2022-11-06T08:01:47.913Z,9.70
2022-11-06T08:06:54.370Z,9.23
2022-11-06T08:12:02.234Z,11.43
2022-11-06T08:17:08.485Z,9.65
2022-11-06T08:22:14.604Z,8.32
2022-11-06T08:27:22.370Z,7.00
2022-11-06T08:32:29.844Z,9.27
2022-11-06T08:37:36.077Z,10.57
2022-11-06T08:42:43.786Z,10.63
2022-11-06T08:47:50.124Z,9.70
2022-11-06T08:52:58.919Z,11.07
2022-11-06T08:58:07.515Z,12.20
2022-11-06T09:03:16.880Z,9.43
2022-11-06T09:08:24.553Z,12.57
2022-11-06T09:13:32.296Z,12.40
2022-11-06T09:18:38.742Z,11.18
2022-11-06T09:23:46.472Z,15.68
2022-11-06T09:28:54.516Z,14.52
2022-11-06T09:34:01.143Z,16.33
2022-11-06T09:39:07.573Z,21.48
2022-11-06T09:44:38.974Z,16.35
2022-11-06T09:49:51.735Z,14.23
2022-11-06T09:55:03.222Z,18.40
2022-11-06T10:00:16.438Z,20.27
2022-11-06T10:05:29.075Z,12.07
2022-11-06T10:10:44.499Z,13.75
2022-11-06T10:16:04.494Z,13.20
2022-11-06T10:21:18.288Z,11.43
2022-11-06T10:26:36.679Z,13.55
2022-11-06T10:31:58.033Z,13.63
2022-11-06T10:37:10.392Z,10.75
2022-11-06T10:42:21.745Z,14.63
2022-11-06T10:47:35.430Z,14.75
2022-11-06T10:52:57.257Z,11.30
2022-11-06T10:58:07.495Z,7.75
2022-11-06T11:03:29.891Z,11.15
2022-11-06T11:08:41.901Z,13.65
2022-11-06T11:13:52.157Z,12.90
2022-11-06T11:19:25.211Z,10.68
2022-11-06T11:24:32.073Z,9.80
2022-11-06T11:29:48.483Z,10.20
2022-11-06T11:34:58.875Z,11.07
2022-11-06T11:40:37.150Z,8.35
2022-11-06T11:45:43.840Z,11.20
2022-11-06T11:50:52.007Z,9.90
2022-11-06T11:55:58.826Z,14.67
2022-11-06T12:01:09.654Z,14.02
2022-11-06T12:06:21.188Z,15.07
2022-11-06T12:11:32.232Z,15.40
2022-11-06T12:16:39.813Z,13.52
2022-11-06T12:21:52.709Z,17.70
2022-11-06T12:27:07.318Z,14.32
2022-11-06T12:32:28.699Z,20.17
2022-11-06T12:37:51.409Z,15.00
2022-11-06T12:43:11.541Z,12.63
2022-11-06T12:48:46.138Z,17.60
2022-11-06T12:54:13.480Z,16.88
2022-11-06T12:59:39.194Z,15.77
2022-11-06T13:04:56.577Z,15.07
2022-11-06T13:10:28.349Z,14.45
2022-11-06T13:15:43.476Z,15.20
2022-11-06T13:20:58.406Z,14.43
2022-11-06T13:26:19.312Z,13.93
2022-11-06T13:31:36.948Z,14.90
2022-11-06T13:36:43.956Z,18.50
2022-11-06T13:41:54.096Z,11.30
2022-11-06T13:47:10.822Z,10.20
2022-11-06T13:52:26.293Z,8.05
2022-11-06T13:58:19.414Z,13.65
2022-11-06T14:04:03.242Z,9.27
2022-11-06T14:09:21.037Z,10.25
2022-11-06T14:14:33.229Z,12.52
2022-11-06T14:19:42.398Z,9.70
2022-11-06T14:24:53.822Z,14.95
2022-11-06T14:30:08.956Z,11.60
2022-11-06T14:35:52.181Z,11.48
2022-11-06T14:41:00.539Z,11.55
2022-11-06T14:46:22.605Z,8.57
2022-11-06T14:51:31.431Z,12.35
2022-11-06T14:56:39.924Z,11.45
2022-11-06T15:02:00.128Z,14.43
2022-11-06T15:07:50.923Z,15.68
2022-11-06T15:13:13.192Z,14.73
2022-11-06T15:18:24.864Z,12.65
2022-11-06T15:23:41.243Z,15.13
2022-11-06T15:28:52.680Z,18.95
2022-11-06T15:34:05.073Z,20.10
2022-11-06T15:39:35.131Z,18.02
2022-11-06T15:44:43.607Z,26.75
2022-11-06T15:50:07.273Z,24.52
2022-11-06T15:55:23.665Z,23.58
2022-11-06T16:00:30.869Z,25.88
2022-11-06T16:05:39.813Z,24.90
2022-11-06T16:10:50.110Z,27.15
2022-11-06T16:15:59.568Z,29.45
2022-11-06T16:21:16.925Z,29.17
2022-11-06T16:26:28.429Z,23.00
2022-11-06T16:31:39.604Z,24.55
2022-11-06T16:37:01.083Z,32.88
2022-11-06T16:42:31.386Z,29.77
2022-11-06T16:47:38.386Z,45.13
2022-11-06T16:52:54.526Z,22.35
2022-11-06T16:58:03.921Z,33.30
2022-11-06T17:03:23.238Z,26.75
2022-11-06T17:08:39.998Z,36.97
2022-11-06T17:13:49.273Z,24.38
2022-11-06T17:18:56.613Z,26.15
2022-11-06T17:24:31.161Z,30.88
2022-11-06T17:34:41.768Z,19.90
2022-11-06T17:39:50.930Z,26.33
2022-11-06T17:44:57.883Z,35.53
2022-11-06T17:50:05.623Z,33.45
2022-11-06T17:55:16.549Z,39.65
2022-11-06T18:00:24.486Z,33.45
2022-11-06T18:05:31.838Z,32.72
2022-11-06T18:10:41.893Z,40.25
2022-11-06T18:15:49.590Z,39.40
2022-11-06T18:20:59.957Z,39.17
2022-11-06T18:26:09.595Z,35.95
2022-11-06T18:31:17.528Z,27.42
2022-11-06T18:36:25.087Z,31.33
2022-11-06T18:41:36.483Z,33.85
2022-11-06T18:46:44.974Z,28.45
2022-11-06T18:51:52.428Z,34.10
2022-11-06T18:57:00.995Z,28.45
2022-11-06T19:02:08.537Z,35.03
2022-11-06T19:07:16.759Z,33.25
2022-11-06T19:12:27.571Z,30.48
2022-11-06T19:17:36.214Z,29.63
2022-11-06T19:22:50.076Z,38.17
2022-11-06T19:27:59.756Z,30.55
2022-11-06T19:33:08.519Z,31.65
2022-11-06T19:38:16.155Z,31.08
2022-11-06T19:43:25.601Z,32.87
2022-11-06T19:48:34.573Z,28.45
2022-11-06T19:53:42.642Z,24.47
2022-11-06T19:58:53.924Z,36.25
2022-11-06T20:04:03.655Z,24.50
2022-11-06T20:09:11.926Z,26.48
2022-11-06T20:14:22.684Z,38.30
2022-11-06T20:19:32.986Z,31.05
2022-11-06T20:24:41.808Z,31.27
2022-11-06T20:29:50.874Z,30.55
2022-11-06T20:34:57.863Z,32.47
2022-11-06T20:40:05.858Z,34.08
2022-11-06T20:45:14.633Z,30.15
2022-11-06T20:50:22.341Z,31.85
2022-11-06T20:55:29.510Z,30.15
2022-11-06T21:00:41.893Z,34.78
2022-11-06T21:05:49.621Z,23.63
2022-11-06T21:11:03.300Z,40.80
2022-11-06T21:16:18.242Z,32.97
2022-11-06T21:21:28.442Z,51.50
2022-11-06T21:26:37.706Z,29.50
2022-11-06T21:31:49.200Z,33.45
2022-11-06T21:37:01.218Z,30.92
2022-11-06T21:42:08.957Z,46.50
2022-11-06T21:47:16.847Z,46.28
2022-11-06T21:52:41.538Z,31.83
2022-11-06T21:57:47.723Z,34.33
2022-11-06T22:02:55.493Z,43.95
2022-11-06T22:08:02.522Z,28.42
2022-11-06T22:13:08.749Z,32.67
2022-11-06T22:18:16.715Z,34.13
2022-11-06T22:23:23.016Z,29.77
2022-11-06T22:28:29.406Z,31.75
2022-11-06T22:33:37.464Z,30.98
2022-11-06T22:38:45.671Z,27.77
2022-11-06T22:43:52.508Z,31.75
2022-11-06T22:49:00.852Z,34.17
2022-11-06T22:54:07.461Z,30.37
2022-11-06T22:59:14.647Z,29.38
2022-11-06T23:04:22.232Z,29.73
2022-11-06T23:09:28.874Z,33.58
2022-11-06T23:14:35.257Z,27.67
2022-11-06T23:19:43.124Z,27.88
2022-11-06T23:24:49.440Z,37.80
2022-11-06T23:30:00.724Z,50.45
2022-11-06T23:35:16.942Z,54.72
2022-11-06T23:40:23.827Z,52.05
2022-11-06T23:45:47.523Z,58.33
2022-11-06T23:50:55.134Z,54.92
2022-11-06T23:56:06.064Z,44.88
